Terminal Aerodrome Forecast
Issued by NWS

Home | Current Version | Previous Version | Text Only | Print | Product List | Glossary On
Versions: 1 2 3 4 5 6 7 8 9 10 11 12 13
000
FTUS41 KPBZ 270500
TAFLBE
TAF
KLBE 270534Z 2706/2806 00000KT P6SM SKC
      TEMPO 2708/2712 4SM BR
     FM271800 22003KT P6SM VCSH BKN040
     FM272100 30008KT P6SM BKN035
     FM280300 34005KT P6SM SCT035=

USA.gov is the U.S. government's official web portal to all federal, state and local government web resources and services.